Time;durP1;ratioP1;P1;durP2;ratioP2;P2;SDS_P1;SDS_P2;PMS_P1;PMS_P2;Temp;Humidity;BMP_temperature;BMP_pressure;BME280_temperature;BME280_humidity;BME280_pressure;Samples;Min_cycle;Max_cycle;Signal;HPM_P1;HPM_P2
2023/07/31 00:00:31;;;;;;;3.08;1.80;;;18.80;99.90;;;19.16;100.00;100671.44;5193417;28;20112;-51
2023/07/31 00:03:04;;;;;;;2.47;1.17;;;18.80;99.90;;;19.16;100.00;100674.09;5199243;28;20056;-51
2023/07/31 00:05:36;;;;;;;2.47;1.20;;;18.80;99.90;;;19.16;100.00;100666.16;5199725;28;20045;-50
2023/07/31 00:08:08;;;;;;;2.80;1.38;;;18.80;99.90;;;19.17;100.00;100660.00;5195116;28;20041;-51
2023/07/31 00:10:42;;;;;;;4.30;2.20;;;18.80;99.90;;;19.17;100.00;100657.38;5191906;28;20061;-50
2023/07/31 00:13:17;;;;;;;3.95;1.48;;;18.80;99.90;;;19.18;100.00;100653.84;5203357;28;20482;-50
2023/07/31 00:15:50;;;;;;;1.55;1.25;;;18.80;99.90;;;19.19;100.00;100652.94;5202907;28;20038;-51
2023/07/31 00:18:22;;;;;;;2.63;1.40;;;18.80;99.90;;;19.20;100.00;100662.63;5202579;28;20049;-50
2023/07/31 00:20:55;;;;;;;3.63;1.15;;;18.80;99.90;;;19.19;100.00;100657.38;5202152;28;20054;-50
2023/07/31 00:23:30;;;;;;;2.67;1.30;;;18.80;99.90;;;19.19;100.00;100665.28;5203838;28;20445;-50
2023/07/31 00:26:04;;;;;;;2.85;1.30;;;18.80;99.90;;;19.18;100.00;100666.19;5203170;28;20068;-50
2023/07/31 00:28:36;;;;;;;2.92;1.38;;;18.80;99.90;;;19.16;100.00;100655.59;5203217;28;20071;-52
2023/07/31 00:31:08;;;;;;;2.90;1.63;;;18.80;99.90;;;19.15;100.00;100656.47;5195366;28;20414;-52
2023/07/31 00:33:44;;;;;;;4.32;1.73;;;18.80;99.90;;;19.15;100.00;100659.13;5203119;28;20053;-52
2023/07/31 00:36:17;;;;;;;2.80;1.45;;;18.80;99.90;;;19.16;100.00;100655.59;5203340;28;20552;-50
2023/07/31 00:38:50;;;;;;;3.58;1.42;;;18.80;99.90;;;19.16;100.00;100665.28;5203721;28;20507;-49
2023/07/31 00:41:23;;;;;;;3.92;1.70;;;18.80;99.90;;;19.16;100.00;100667.91;5203011;28;20457;-49
2023/07/31 00:43:56;;;;;;;3.60;1.55;;;18.80;99.90;;;19.16;100.00;100668.78;5202852;28;20085;-50
2023/07/31 00:46:28;;;;;;;4.43;1.52;;;18.80;99.90;;;19.17;100.00;100667.94;5203299;28;20040;-50
2023/07/31 00:49:02;;;;;;;3.78;1.50;;;18.80;99.90;;;19.17;100.00;100661.75;5202605;28;20136;-50
2023/07/31 00:51:35;;;;;;;3.40;1.33;;;18.80;99.90;;;19.14;100.00;100652.06;5203042;28;20137;-49
2023/07/31 00:54:08;;;;;;;3.70;1.52;;;18.80;99.90;;;19.14;100.00;100652.06;5202407;28;20034;-53
2023/07/31 00:56:43;;;;;;;3.40;1.80;;;18.80;99.90;;;19.15;100.00;100652.97;5202724;28;20041;-51
2023/07/31 00:59:15;;;;;;;2.92;1.48;;;18.80;99.90;;;19.15;100.00;100648.56;5195101;28;20041;-53
2023/07/31 01:01:48;;;;;;;2.47;1.30;;;18.80;99.90;;;19.15;100.00;100637.97;5201686;28;20050;-52
2023/07/31 01:04:21;;;;;;;2.35;1.45;;;18.80;99.90;;;19.14;100.00;100649.44;5202861;28;20045;-50
2023/07/31 01:07:03;;;;;;;2.80;1.45;;;18.80;99.90;;;19.14;100.00;100646.78;5203896;28;20045;-53
2023/07/31 01:09:44;;;;;;;2.15;1.30;;;18.80;99.90;;;19.15;100.00;100645.03;5202729;28;20038;-50
2023/07/31 01:12:18;;;;;;;3.53;1.23;;;18.80;99.90;;;19.16;100.00;100641.50;5195343;28;20077;-50
2023/07/31 01:15:04;;;;;;;3.47;1.30;;;18.80;99.90;;;19.15;100.00;100637.97;5202308;28;20049;-50
2023/07/31 01:17:40;;;;;;;2.75;1.30;;;18.80;99.90;;;19.14;100.00;100636.22;5194958;28;20104;-49
2023/07/31 01:20:16;;;;;;;4.68;1.92;;;18.90;99.90;;;19.14;100.00;100630.94;5194495;28;20041;-51
2023/07/31 01:23:26;;;;;;;3.30;1.30;;;18.80;99.90;;;19.15;100.00;100637.97;5193965;28;20069;-52
2023/07/31 01:26:12;;;;;;;2.80;1.20;;;18.80;99.90;;;19.15;100.00;100637.97;5203539;28;20406;-50
2023/07/31 01:28:56;;;;;;;3.15;1.30;;;18.80;99.90;;;19.15;100.00;100632.69;5201330;28;20498;-51
2023/07/31 01:31:31;;;;;;;2.72;1.63;;;18.80;99.90;;;19.17;100.00;100635.31;5202298;28;20099;-52
2023/07/31 01:34:04;;;;;;;3.35;1.50;;;18.80;99.90;;;19.15;100.00;100632.69;5201807;28;20055;-50
2023/07/31 01:36:37;;;;;;;3.08;1.38;;;18.80;99.90;;;19.15;100.00;100632.69;5202254;28;20049;-50
2023/07/31 01:39:09;;;;;;;4.07;1.77;;;18.80;99.90;;;19.13;100.00;100639.75;5201056;28;20042;-52
2023/07/31 01:41:46;;;;;;;3.10;1.20;;;18.80;99.90;;;19.13;100.00;100642.41;5202234;28;20392;-50
2023/07/31 01:44:18;;;;;;;2.40;1.10;;;18.80;99.90;;;19.12;100.00;100624.78;5202074;28;20049;-50
2023/07/31 01:46:51;;;;;;;2.03;1.23;;;18.80;99.90;;;19.13;100.00;100634.47;5201975;28;20522;-50
2023/07/31 01:49:23;;;;;;;2.38;1.42;;;18.80;99.90;;;19.12;100.00;100627.44;5201578;28;20078;-53
2023/07/31 01:51:56;;;;;;;2.78;1.30;;;18.80;99.90;;;19.12;100.00;100624.78;5201254;28;20438;-52
2023/07/31 01:54:28;;;;;;;3.67;1.50;;;18.80;99.90;;;19.12;100.00;100622.16;5201668;28;20045;-52
2023/07/31 01:57:02;;;;;;;2.97;1.25;;;18.80;99.90;;;19.13;100.00;100629.19;5201504;28;20049;-50
2023/07/31 01:59:35;;;;;;;3.25;1.42;;;18.80;99.90;;;19.14;100.00;100625.66;5201554;28;20033;-50
2023/07/31 02:02:07;;;;;;;4.40;1.42;;;18.80;99.90;;;19.13;100.00;100629.19;5201283;28;20422;-50
2023/07/31 02:04:40;;;;;;;2.72;1.20;;;18.80;99.90;;;19.13;100.00;100621.25;5201661;28;20037;-52
2023/07/31 02:07:14;;;;;;;1.83;0.95;;;18.80;99.90;;;19.12;100.00;100608.94;5200926;28;20484;-50
2023/07/31 02:09:47;;;;;;;1.73;1.13;;;18.80;99.90;;;19.13;100.00;100620.38;5201405;28;20045;-50
2023/07/31 02:12:21;;;;;;;1.95;0.95;;;18.80;99.90;;;19.12;100.00;100616.88;5201755;28;20521;-50
2023/07/31 02:14:54;;;;;;;2.00;1.27;;;18.80;99.90;;;19.13;100.00;100602.78;5201614;28;20045;-54
2023/07/31 02:17:26;;;;;;;3.15;1.45;;;18.80;99.90;;;19.13;100.00;100610.69;5200920;28;20049;-51
2023/07/31 02:19:58;;;;;;;2.55;1.33;;;18.80;99.90;;;19.12;100.00;100606.31;5201136;28;20060;-52
2023/07/31 02:22:31;;;;;;;2.28;1.33;;;18.80;99.90;;;19.12;100.00;100602.78;5201165;28;20045;-51
2023/07/31 02:25:03;;;;;;;2.75;1.38;;;18.80;99.90;;;19.10;100.00;100602.75;5201186;28;20041;-51
2023/07/31 02:27:37;;;;;;;2.85;1.27;;;18.80;99.90;;;19.09;100.00;100595.72;5193579;28;20046;-51
2023/07/31 02:30:11;;;;;;;2.47;1.10;;;18.80;99.90;;;19.10;100.00;100596.59;5199642;28;20105;-50
2023/07/31 02:32:44;;;;;;;2.67;1.33;;;18.80;99.90;;;19.09;100.00;100587.81;5201578;28;20041;-50
2023/07/31 02:35:18;;;;;;;2.42;1.27;;;18.80;99.90;;;19.10;100.00;100592.19;5200936;28;20046;-50
2023/07/31 02:37:53;;;;;;;4.28;1.60;;;18.70;99.90;;;19.11;100.00;100587.81;5200143;28;20037;-50
2023/07/31 02:40:26;;;;;;;1.98;1.30;;;18.80;99.90;;;19.11;100.00;100580.78;5201339;28;20808;-51
2023/07/31 02:42:59;;;;;;;2.28;1.23;;;18.80;99.90;;;19.11;100.00;100580.78;5200790;28;20418;-50
2023/07/31 02:45:32;;;;;;;2.40;1.20;;;18.80;99.90;;;19.11;100.00;100583.41;5200843;28;20411;-50
2023/07/31 02:48:05;;;;;;;2.05;1.33;;;18.80;99.90;;;19.11;100.00;100583.41;5199823;28;20049;-51
2023/07/31 02:50:37;;;;;;;3.33;1.25;;;18.80;99.90;;;19.11;100.00;100580.78;5200675;28;20045;-53
2023/07/31 02:53:10;;;;;;;3.05;1.35;;;18.80;99.90;;;19.13;100.00;100583.41;5200140;28;20087;-52
2023/07/31 02:55:45;;;;;;;2.95;1.25;;;18.80;99.90;;;19.12;100.00;100574.59;5200743;28;20041;-50
2023/07/31 02:58:19;;;;;;;2.47;1.15;;;18.80;99.90;;;19.13;100.00;100579.00;5199810;28;20047;-54
2023/07/31 03:00:51;;;;;;;1.95;1.23;;;18.80;99.90;;;19.13;100.00;100573.72;5200011;28;20041;-50
2023/07/31 03:03:24;;;;;;;3.03;1.35;;;18.80;99.90;;;19.13;100.00;100572.84;5193089;28;20065;-50
2023/07/31 03:05:56;;;;;;;3.97;1.60;;;18.80;99.90;;;19.13;100.00;100572.84;5200230;28;20049;-52
2023/07/31 03:08:30;;;;;;;3.30;1.30;;;18.80;99.90;;;19.15;100.00;100568.41;5200273;28;20045;-53
2023/07/31 03:11:02;;;;;;;2.95;1.42;;;18.80;99.90;;;19.13;100.00;100560.50;5200304;28;20073;-52
2023/07/31 03:13:36;;;;;;;3.53;1.38;;;18.80;99.90;;;19.14;100.00;100566.66;5200614;28;20053;-53
2023/07/31 03:16:08;;;;;;;2.72;1.35;;;18.80;99.90;;;19.13;100.00;100560.50;5200080;28;20053;-52
2023/07/31 03:18:41;;;;;;;4.22;1.80;;;18.80;99.90;;;19.14;100.00;100566.66;5199930;28;20056;-51
2023/07/31 03:21:15;;;;;;;2.38;1.33;;;18.80;99.90;;;19.14;100.00;100562.25;5199998;28;20041;-49
2023/07/31 03:23:51;;;;;;;3.10;1.48;;;18.80;99.90;;;19.16;100.00;100549.91;5200089;28;20132;-49
2023/07/31 03:26:23;;;;;;;3.53;1.38;;;18.80;99.90;;;19.17;100.00;100556.97;5192444;28;20049;-50
2023/07/31 03:28:57;;;;;;;2.28;1.23;;;18.80;99.90;;;19.17;100.00;100551.69;5199434;28;20045;-50
2023/07/31 03:31:29;;;;;;;2.53;1.40;;;18.80;99.90;;;19.18;100.00;100552.56;5200018;28;20050;-51
2023/07/31 03:34:05;;;;;;;3.38;1.65;;;18.80;99.90;;;19.19;100.00;100546.38;5199822;28;20049;-49
2023/07/31 03:36:37;;;;;;;3.33;1.52;;;18.80;99.90;;;19.20;100.00;100543.72;5200030;28;20708;-54
2023/07/31 03:39:10;;;;;;;2.50;1.30;;;18.80;99.90;;;19.21;100.00;100541.97;5198389;28;20053;-50
2023/07/31 03:41:45;;;;;;;3.20;1.33;;;18.90;99.90;;;19.20;100.00;100543.72;5191545;28;20056;-50
2023/07/31 03:44:19;;;;;;;3.60;1.60;;;18.90;99.90;;;19.22;100.00;100538.44;5191747;28;20045;-52
2023/07/31 03:46:52;;;;;;;3.95;1.67;;;18.90;99.90;;;19.20;100.00;100530.53;5199681;28;20422;-52
2023/07/31 03:49:25;;;;;;;3.75;1.75;;;18.90;99.90;;;19.20;100.00;100533.16;5191843;28;20129;-50
2023/07/31 03:51:57;;;;;;;3.85;1.40;;;18.90;99.90;;;19.20;100.00;100527.00;5199057;28;20430;-53
2023/07/31 03:54:30;;;;;;;3.28;1.52;;;18.90;99.90;;;19.23;100.00;100535.81;5194944;28;20096;-53
2023/07/31 03:57:02;;;;;;;3.13;1.50;;;18.90;99.90;;;19.20;100.00;100530.53;5196671;28;20053;-51
2023/07/31 03:59:38;;;;;;;2.45;1.42;;;18.90;99.90;;;19.23;100.00;100535.81;5191645;28;20046;-51
2023/07/31 04:02:10;;;;;;;3.97;1.65;;;18.90;99.90;;;19.22;100.00;100528.75;5199294;28;20049;-53
2023/07/31 04:04:42;;;;;;;4.25;1.95;;;18.90;99.90;;;19.23;100.00;100527.88;5199909;28;20510;-51
2023/07/31 04:07:15;;;;;;;3.55;1.60;;;18.90;99.90;;;19.23;100.00;100525.25;5199235;28;20050;-51
2023/07/31 04:09:47;;;;;;;4.00;1.80;;;18.90;99.90;;;19.22;100.00;100520.81;5199907;28;20435;-52
2023/07/31 04:12:20;;;;;;;3.10;1.42;;;18.90;99.90;;;19.24;100.00;100521.72;5198942;28;20502;-50
2023/07/31 04:14:54;;;;;;;4.22;1.40;;;18.90;99.90;;;19.25;100.00;100519.94;5199774;28;20057;-50
2023/07/31 04:17:26;;;;;;;3.20;1.40;;;18.90;99.90;;;19.24;100.00;100519.06;5191215;28;20052;-52
2023/07/31 04:19:58;;;;;;;4.47;1.40;;;18.90;99.90;;;19.25;100.00;100512.88;5199252;28;20069;-51
2023/07/31 04:22:31;;;;;;;3.10;1.20;;;18.90;99.90;;;19.25;100.00;100528.75;5199625;28;20430;-54
2023/07/31 04:25:03;;;;;;;2.72;1.55;;;18.90;99.90;;;19.26;100.00;100521.69;5199611;28;20044;-51
2023/07/31 04:27:35;;;;;;;4.15;1.45;;;18.90;99.90;;;19.27;100.00;100522.56;5199382;28;20048;-50
2023/07/31 04:30:10;;;;;;;4.82;1.77;;;18.90;99.90;;;19.28;100.00;100519.03;5199197;28;20049;-51
2023/07/31 04:32:42;;;;;;;2.85;1.42;;;18.90;99.90;;;19.28;100.00;100524.31;5199513;28;20044;-50
2023/07/31 04:35:15;;;;;;;3.45;1.42;;;18.90;99.90;;;19.30;100.00;100525.19;5199449;28;20092;-49
2023/07/31 04:37:50;;;;;;;3.83;1.73;;;19.00;99.90;;;19.31;100.00;100521.69;5199024;28;20049;-54
2023/07/31 04:40:23;;;;;;;2.75;1.23;;;18.90;99.90;;;19.32;100.00;100518.16;5199148;28;20042;-50
2023/07/31 04:42:55;;;;;;;3.10;1.48;;;19.00;99.90;;;19.33;100.00;100525.19;5199481;28;20049;-50
2023/07/31 04:45:29;;;;;;;2.72;1.30;;;19.00;99.90;;;19.32;100.00;100519.03;5191358;28;20153;-50
2023/07/31 04:48:01;;;;;;;2.78;1.70;;;19.00;99.90;;;19.33;100.00;100517.25;5198368;28;20053;-50
2023/07/31 04:50:33;;;;;;;2.63;1.60;;;19.00;99.90;;;19.34;100.00;100519.00;5199364;28;20092;-50
2023/07/31 04:53:06;;;;;;;4.15;1.83;;;19.00;99.90;;;19.35;100.00;100512.81;5203073;28;20045;-53
2023/07/31 04:55:38;;;;;;;3.22;1.67;;;19.00;99.90;;;19.36;100.00;100512.81;5195285;28;20046;-53
2023/07/31 04:58:14;;;;;;;3.28;1.77;;;19.00;99.90;;;19.37;100.00;100517.25;5194425;28;20050;-50
2023/07/31 05:00:47;;;;;;;3.03;1.30;;;19.00;99.90;;;19.38;100.00;100512.81;5203186;28;20506;-53
2023/07/31 05:03:20;;;;;;;2.70;1.35;;;19.00;99.90;;;19.39;100.00;100504.88;5202883;28;20046;-50
2023/07/31 05:05:52;;;;;;;4.28;1.50;;;19.00;99.90;;;19.42;100.00;100507.50;5203128;28;20064;-49
2023/07/31 05:08:25;;;;;;;2.67;1.40;;;19.00;99.90;;;19.45;100.00;100501.31;5198750;28;20054;-53
2023/07/31 05:10:57;;;;;;;3.03;1.40;;;19.10;99.90;;;19.47;100.00;100496.91;5198671;28;20056;-51
2023/07/31 05:13:29;;;;;;;3.35;1.63;;;19.10;99.90;;;19.48;100.00;100498.66;5182766;28;20037;-51
2023/07/31 05:16:03;;;;;;;4.13;1.52;;;19.10;99.90;;;19.49;100.00;100489.81;5190784;28;20056;-50
2023/07/31 05:18:36;;;;;;;3.47;1.73;;;19.10;99.90;;;19.51;100.00;100485.44;5202085;28;20056;-51
2023/07/31 05:21:08;;;;;;;2.38;1.70;;;19.10;99.90;;;19.53;100.00;100492.44;5201453;28;20052;-50
2023/07/31 05:23:40;;;;;;;3.03;1.52;;;19.20;99.90;;;19.56;100.00;100486.28;5202732;28;20052;-50
2023/07/31 05:26:13;;;;;;;3.25;1.70;;;19.20;99.90;;;19.57;100.00;100482.75;5202477;28;20061;-50
2023/07/31 05:28:45;;;;;;;3.08;1.63;;;19.20;99.90;;;19.59;100.00;100475.72;5202027;28;20046;-54
2023/07/31 05:31:20;;;;;;;3.58;1.77;;;19.20;99.90;;;19.60;100.00;100477.47;5201845;28;20056;-53
2023/07/31 05:33:56;;;;;;;3.45;1.63;;;19.20;99.90;;;19.62;100.00;100480.09;5202701;28;20045;-50
2023/07/31 05:36:28;;;;;;;4.57;1.55;;;19.30;99.90;;;19.62;100.00;100475.66;5201831;28;20038;-51
2023/07/31 05:39:06;;;;;;;2.80;1.60;;;19.20;99.90;;;19.61;100.00;100475.69;5201457;28;20053;-54
2023/07/31 05:41:38;;;;;;;5.05;1.63;;;19.20;99.90;;;19.61;100.00;100473.91;5194975;28;20033;-51
2023/07/31 05:44:10;;;;;;;3.80;1.85;;;19.30;99.90;;;19.64;100.00;100463.34;5201792;28;20049;-51
2023/07/31 05:46:44;;;;;;;2.50;1.40;;;19.30;99.90;;;19.65;100.00;100454.50;5202446;28;20049;-51
2023/07/31 05:49:16;;;;;;;3.15;1.80;;;19.30;99.90;;;19.65;100.00;100454.50;5201673;28;20061;-50
2023/07/31 05:51:49;;;;;;;3.17;1.65;;;19.30;99.90;;;19.67;100.00;100446.56;5202080;28;20418;-50
2023/07/31 05:54:21;;;;;;;2.65;1.55;;;19.30;99.90;;;19.66;100.00;100439.53;5193523;28;20057;-49
2023/07/31 05:56:53;;;;;;;2.88;1.50;;;19.30;99.90;;;19.68;100.00;100445.66;5202073;28;20446;-50
2023/07/31 05:59:26;;;;;;;2.97;1.48;;;19.30;99.90;;;19.69;100.00;100442.13;5201773;28;20320;-51
2023/07/31 06:02:00;;;;;;;3.17;1.50;;;19.30;99.90;;;19.70;100.00;100441.25;5201509;28;20041;-49
2023/07/31 06:04:32;;;;;;;5.35;2.22;;;19.30;99.90;;;19.70;100.00;100426.28;5202452;28;20037;-49
2023/07/31 06:07:05;;;;;;;3.65;1.80;;;19.30;99.90;;;19.69;100.00;100434.19;5201202;28;20046;-50
2023/07/31 06:09:37;;;;;;;3.17;1.63;;;19.30;99.90;;;19.70;100.00;100428.91;5201716;28;20407;-50
2023/07/31 06:12:10;;;;;;;2.88;1.67;;;19.30;99.90;;;19.71;100.00;100438.59;5201136;28;20432;-49
2023/07/31 06:14:42;;;;;;;3.65;1.70;;;19.30;99.90;;;19.72;100.00;100439.47;5201688;28;20048;-50
2023/07/31 06:17:16;;;;;;;4.68;1.88;;;19.30;99.90;;;19.70;100.00;100431.56;5201644;28;20499;-49
2023/07/31 06:19:48;;;;;;;3.42;1.95;;;19.30;99.90;;;19.71;100.00;100432.44;5201378;28;20056;-50
2023/07/31 06:22:24;;;;;;;2.63;1.80;;;19.30;99.90;;;19.71;100.00;100443.88;5200869;28;20061;-50
2023/07/31 06:24:57;;;;;;;3.85;1.83;;;19.30;99.90;;;19.70;100.00;100452.72;5201525;28;20064;-49
2023/07/31 06:27:29;;;;;;;3.85;1.77;;;19.30;99.90;;;19.72;100.00;100456.22;5200266;28;20721;-50
2023/07/31 06:30:02;;;;;;;3.25;1.60;;;19.30;99.90;;;19.70;100.00;100452.72;5201451;28;20053;-51
2023/07/31 06:32:36;;;;;;;3.50;1.73;;;19.30;99.90;;;19.66;100.00;100448.34;5200854;28;20041;-50
2023/07/31 06:35:09;;;;;;;3.03;1.63;;;19.30;99.90;;;19.66;100.00;100443.03;5200608;28;20510;-51
2023/07/31 06:37:43;;;;;;;5.35;2.03;;;19.30;99.90;;;19.63;100.00;100451.00;5200755;28;20049;-50
2023/07/31 06:40:19;;;;;;;3.80;1.73;;;19.30;99.90;;;19.60;100.00;100440.44;5199689;28;21073;-50
2023/07/31 06:42:51;;;;;;;3.70;1.73;;;19.30;99.90;;;19.60;100.00;100439.56;5201097;28;20045;-50
2023/07/31 06:45:23;;;;;;;2.92;1.58;;;19.20;99.90;;;19.59;100.00;100438.69;5200127;28;20045;-50
2023/07/31 06:48:01;;;;;;;3.30;1.50;;;19.30;99.90;;;19.61;100.00;100434.25;5187639;28;20435;-49
2023/07/31 06:50:33;;;;;;;4.80;2.15;;;19.30;99.90;;;19.62;100.00;100433.38;5183858;28;20042;-50
2023/07/31 06:53:06;;;;;;;4.00;1.98;;;19.30;99.90;;;19.63;100.00;100437.78;5192667;28;20420;-49
2023/07/31 06:55:38;;;;;;;4.07;1.77;;;19.30;99.90;;;19.62;100.00;100430.72;5194441;28;20054;-49
2023/07/31 06:58:11;;;;;;;4.05;2.05;;;19.20;99.90;;;19.60;100.00;100435.16;5198579;28;20052;-51
2023/07/31 07:00:43;;;;;;;4.00;2.10;;;19.30;99.90;;;19.61;100.00;100425.47;5191837;28;20057;-49
2023/07/31 07:03:20;;;;;;;4.63;1.75;;;19.20;99.90;;;19.61;100.00;100430.75;5197315;28;20058;-49
2023/07/31 07:05:52;;;;;;;3.92;1.70;;;19.20;99.90;;;19.62;100.00;100421.91;5193784;28;20450;-50
2023/07/31 07:08:26;;;;;;;3.85;1.73;;;19.30;99.90;;;19.64;100.00;100426.31;5199451;28;20037;-50
2023/07/31 07:10:58;;;;;;;3.30;1.67;;;19.30;99.90;;;19.79;100.00;100414.72;5199332;28;20051;-50
2023/07/31 07:13:30;;;;;;;3.97;1.88;;;19.40;99.90;;;20.03;100.00;100419.81;5186117;28;20048;-49
2023/07/31 07:16:03;;;;;;;4.68;1.58;;;19.50;99.90;;;20.35;100.00;100415.06;5189388;28;20041;-50
2023/07/31 07:18:36;;;;;;;3.72;2.25;;;19.80;99.90;;;20.55;100.00;100407.81;5191658;28;20064;-52
2023/07/31 07:21:09;;;;;;;3.10;1.63;;;20.00;99.90;;;20.68;100.00;100403.22;5199554;28;20052;-50
2023/07/31 07:23:41;;;;;;;3.45;1.80;;;20.10;99.90;;;20.75;100.00;100411.06;5192361;28;20793;-50
2023/07/31 07:26:16;;;;;;;3.60;1.77;;;20.20;99.90;;;20.86;100.00;100406.53;5199800;28;20045;-52
2023/07/31 07:28:49;;;;;;;4.65;1.65;;;20.40;99.90;;;20.89;100.00;100402.06;5199764;28;20507;-50
2023/07/31 07:31:21;;;;;;;4.18;1.42;;;20.40;99.90;;;20.85;100.00;100402.09;5199492;28;20056;-50
2023/07/31 07:33:55;;;;;;;4.82;2.35;;;20.50;99.90;;;20.86;100.00;100403.88;5199920;28;20052;-50
2023/07/31 07:36:32;;;;;;;3.83;1.90;;;20.40;99.90;;;20.83;100.00;100398.59;5199808;28;20076;-50
2023/07/31 07:39:04;;;;;;;3.05;1.65;;;20.40;99.90;;;20.78;100.00;100400.44;5199913;28;20049;-51
2023/07/31 07:41:37;;;;;;;2.55;1.55;;;20.40;99.90;;;20.77;100.00;100409.28;5199563;28;20041;-50
2023/07/31 07:44:13;;;;;;;3.53;1.88;;;20.40;99.90;;;20.75;100.00;100418.16;5200072;28;20414;-50
2023/07/31 07:46:45;;;;;;;4.03;1.88;;;20.30;99.90;;;20.70;100.00;100420.84;5192521;28;20425;-50
2023/07/31 07:49:22;;;;;;;4.28;2.10;;;20.30;99.90;;;20.68;100.00;100413.81;5199261;28;20054;-50
2023/07/31 07:51:54;;;;;;;4.68;1.83;;;20.40;99.90;;;20.64;100.00;100414.75;5200317;28;20045;-51
2023/07/31 07:54:27;;;;;;;3.92;1.90;;;20.30;99.90;;;20.59;100.00;100414.78;5199876;28;20099;-50
2023/07/31 07:57:00;;;;;;;4.20;2.05;;;20.30;99.90;;;20.53;100.00;100409.56;5198814;28;20068;-50
2023/07/31 07:59:32;;;;;;;4.30;1.83;;;20.20;99.90;;;20.49;100.00;100405.22;5191105;28;20049;-50
2023/07/31 08:02:05;;;;;;;4.65;1.98;;;20.10;99.90;;;20.43;100.00;100407.91;5197581;28;20052;-50
2023/07/31 08:04:39;;;;;;;5.18;1.95;;;20.10;99.90;;;20.40;100.00;100427.34;5192814;28;20037;-49
2023/07/31 08:07:13;;;;;;;3.92;2.25;;;20.00;99.90;;;20.36;100.00;100427.41;5196715;28;20054;-51
2023/07/31 08:09:45;;;;;;;4.53;2.10;;;20.00;99.90;;;20.32;100.00;100413.31;5191655;28;20153;-50
2023/07/31 08:12:17;;;;;;;3.97;1.75;;;20.00;99.90;;;20.26;100.00;100416.91;5186427;28;20046;-50
2023/07/31 08:14:50;;;;;;;2.25;1.58;;;19.90;99.90;;;20.17;100.00;100422.31;5182034;28;20525;-50
2023/07/31 08:17:22;;;;;;;4.22;1.90;;;19.80;99.90;;;20.10;100.00;100420.63;5187234;28;20053;-50
2023/07/31 08:19:58;;;;;;;4.13;1.92;;;19.80;99.90;;;20.05;100.00;100417.13;5198858;28;20055;-50
2023/07/31 08:22:33;;;;;;;3.90;2.13;;;19.70;99.90;;;20.03;100.00;100405.69;5193715;28;20052;-50
2023/07/31 08:25:07;;;;;;;3.70;1.73;;;19.60;99.90;;;20.00;100.00;100403.06;5208126;28;20123;-50
2023/07/31 08:27:40;;;;;;;4.15;1.90;;;19.60;99.90;;;20.00;100.00;100400.41;5196408;28;20060;-50
2023/07/31 08:30:13;;;;;;;4.90;2.08;;;19.60;99.90;;;20.03;100.00;100403.94;5198397;28;20050;-49
2023/07/31 08:32:46;;;;;;;4.07;1.90;;;19.60;99.90;;;20.05;100.00;100401.25;5201145;28;20038;-49
2023/07/31 08:35:20;;;;;;;5.78;1.90;;;19.60;99.90;;;20.02;100.00;100396.88;5202855;28;20053;-50
2023/07/31 08:37:52;;;;;;;3.42;1.83;;;19.60;99.90;;;20.04;100.00;100391.56;5202343;28;20834;-49
2023/07/31 08:40:28;;;;;;;5.97;2.15;;;19.60;99.90;;;20.00;100.00;100387.19;5202866;28;20060;-50
2023/07/31 08:43:02;;;;;;;4.03;1.77;;;19.60;99.90;;;19.94;100.00;100389.91;5203191;28;20137;-47
2023/07/31 08:45:35;;;;;;;3.20;1.55;;;19.50;99.90;;;19.93;100.00;100385.50;5201808;28;20144;-47
2023/07/31 08:48:07;;;;;;;4.20;2.25;;;19.50;99.90;;;19.90;100.00;100381.13;5195502;28;20041;-48
2023/07/31 08:50:41;;;;;;;4.60;1.85;;;19.50;99.90;;;19.90;100.00;100369.69;5201499;28;20514;-47
2023/07/31 08:53:13;;;;;;;3.28;1.63;;;19.50;99.90;;;19.90;100.00;100369.69;5198393;28;20046;-47
2023/07/31 08:55:47;;;;;;;3.63;1.65;;;19.50;99.90;;;19.87;100.00;100360.00;5202390;28;20517;-47
2023/07/31 08:58:24;;;;;;;3.75;1.38;;;19.50;99.90;;;19.88;100.00;100366.16;5192463;28;20426;-47
2023/07/31 09:00:58;;;;;;;4.38;1.80;;;19.50;99.90;;;19.89;100.00;100363.50;5202922;28;20411;-47
2023/07/31 09:03:36;;;;;;;3.38;1.63;;;19.50;99.90;;;19.88;100.00;100360.84;5202473;28;20453;-48
2023/07/31 09:06:11;;;;;;;3.70;1.90;;;19.50;99.90;;;19.87;100.00;100370.56;5197034;28;20403;-47
2023/07/31 09:08:47;;;;;;;3.47;1.70;;;19.50;99.90;;;19.89;100.00;100378.50;5191868;28;20045;-47
2023/07/31 09:11:23;;;;;;;4.30;1.90;;;19.50;99.90;;;19.90;100.00;100385.56;5193658;28;20060;-50
2023/07/31 09:14:01;;;;;;;3.60;1.80;;;19.50;99.90;;;19.92;100.00;100386.41;5193643;28;20137;-48
2023/07/31 09:16:37;;;;;;;3.80;1.92;;;19.50;99.90;;;19.94;100.00;100392.53;5188931;28;20054;-48
2023/07/31 09:19:10;;;;;;;3.28;1.92;;;19.50;99.90;;;19.98;100.00;100389.88;5190489;28;20578;-51
2023/07/31 09:21:50;;;;;;;3.28;1.55;;;19.60;99.90;;;20.02;100.00;100390.72;5190268;28;20053;-48
2023/07/31 09:24:30;;;;;;;4.28;1.75;;;19.60;99.90;;;20.01;100.00;100391.59;5193416;28;20041;-49
2023/07/31 09:27:03;;;;;;;3.28;1.52;;;19.60;99.90;;;20.03;100.00;100376.59;5202199;28;20144;-49
2023/07/31 09:29:36;;;;;;;4.57;2.10;;;19.60;99.90;;;20.03;100.00;100372.19;5201549;28;20511;-47
2023/07/31 09:32:17;;;;;;;4.25;1.92;;;19.60;99.90;;;20.01;100.00;100362.47;5202338;28;20046;-51
2023/07/31 09:34:50;;;;;;;3.70;1.70;;;19.60;99.90;;;19.97;100.00;100366.06;5211105;28;20807;-46
2023/07/31 09:37:24;;;;;;;2.78;1.65;;;19.60;99.90;;;19.95;100.00;100357.25;5201152;28;20051;-49
2023/07/31 09:39:58;;;;;;;2.25;1.40;;;19.60;99.90;;;19.96;100.00;100356.41;5195409;28;20053;-47
2023/07/31 09:42:31;;;;;;;;;;;19.60;99.90;;;19.98;100.00;100357.25;5201890;28;20053;-50
2023/07/31 09:45:12;;;;;;;2.90;1.50;;;19.60;99.90;;;20.01;100.00;100351.91;5201895;28;19952;-47
2023/07/31 09:47:48;;;;;;;4.35;1.60;;;19.60;99.90;;;20.02;100.00;100357.19;5201111;28;20057;-47
2023/07/31 09:50:22;;;;;;;3.53;1.60;;;19.60;99.90;;;20.01;100.00;100357.19;5203119;28;20077;-48
2023/07/31 09:52:56;;;;;;;3.47;1.85;;;19.60;99.90;;;20.00;100.00;100345.75;5194534;28;20064;-50
2023/07/31 09:55:31;;;;;;;3.70;1.63;;;19.60;99.90;;;19.98;100.00;100342.25;5201614;28;20659;-47
2023/07/31 09:58:07;;;;;;;2.95;1.40;;;19.60;99.90;;;19.95;100.00;100339.66;5201074;28;20077;-47
2023/07/31 10:00:42;;;;;;;2.38;1.48;;;19.60;99.90;;;19.90;100.00;100333.53;5201209;28;20044;-49
2023/07/31 10:03:17;;;;;;;4.53;2.28;;;19.60;99.90;;;19.83;100.00;100325.69;5199543;28;20145;-47
2023/07/31 10:05:53;;;;;;;3.88;1.67;;;19.50;99.90;;;19.79;100.00;100328.34;5200498;28;20041;-47
2023/07/31 10:08:33;;;;;;;3.05;1.42;;;19.50;99.90;;;19.84;100.00;100324.78;5212070;28;20053;-47
2023/07/31 10:11:07;;;;;;;4.05;1.63;;;19.50;99.90;;;19.89;100.00;100318.56;5201929;28;20046;-48
2023/07/31 10:13:39;;;;;;;3.45;1.73;;;19.50;99.90;;;19.93;100.00;100314.97;5200763;28;20048;-47
2023/07/31 10:16:13;;;;;;;3.95;2.10;;;19.50;99.90;;;19.97;100.00;100315.81;5200710;28;20533;-49
2023/07/31 10:18:51;;;;;;;3.08;1.80;;;19.60;99.90;;;19.99;100.00;100317.53;5191360;28;20045;-47
2023/07/31 10:21:24;;;;;;;4.45;1.83;;;19.60;99.90;;;20.00;100.00;100310.47;5192578;28;20057;-48
2023/07/31 10:23:58;;;;;;;3.95;2.00;;;19.60;99.90;;;20.02;100.00;100311.34;5193854;28;20048;-49
2023/07/31 10:26:34;;;;;;;;;;;19.70;99.90;;;20.06;100.00;100315.69;5201247;28;20064;-47
2023/07/31 10:29:07;;;;;;;4.20;1.90;;;19.70;99.90;;;20.05;100.00;100308.66;5194425;28;20468;-48
2023/07/31 10:31:41;;;;;;;4.60;2.22;;;19.70;99.90;;;20.05;100.00;100306.00;5200324;28;20045;-47